sensor_id;sensor_type;location;lat;lon;timestamp;P1;durP1;ratioP1;P2;durP2;ratioP2
7833;SDS011;3962;42.696;23.354;2023-03-24T00:00:16;22.00;;;14.13;;
7833;SDS011;3962;42.696;23.354;2023-03-24T00:02:46;22.07;;;13.97;;
7833;SDS011;3962;42.696;23.354;2023-03-24T00:05:15;26.20;;;16.33;;
7833;SDS011;3962;42.696;23.354;2023-03-24T00:07:45;28.47;;;17.37;;
7833;SDS011;3962;42.696;23.354;2023-03-24T00:10:13;25.73;;;17.17;;
7833;SDS011;3962;42.696;23.354;2023-03-24T00:12:42;27.53;;;16.80;;
7833;SDS011;3962;42.696;23.354;2023-03-24T00:15:11;29.07;;;18.80;;
7833;SDS011;3962;42.696;23.354;2023-03-24T00:17:39;29.83;;;18.50;;
7833;SDS011;3962;42.696;23.354;2023-03-24T00:20:07;29.97;;;18.77;;
7833;SDS011;3962;42.696;23.354;2023-03-24T00:22:39;33.43;;;20.37;;
7833;SDS011;3962;42.696;23.354;2023-03-24T00:25:09;29.03;;;18.53;;
7833;SDS011;3962;42.696;23.354;2023-03-24T00:27:37;26.63;;;17.77;;
7833;SDS011;3962;42.696;23.354;2023-03-24T00:30:04;31.87;;;17.77;;
7833;SDS011;3962;42.696;23.354;2023-03-24T00:32:33;24.40;;;17.40;;
7833;SDS011;3962;42.696;23.354;2023-03-24T00:35:03;27.03;;;16.07;;
7833;SDS011;3962;42.696;23.354;2023-03-24T00:37:30;23.47;;;15.73;;
7833;SDS011;3962;42.696;23.354;2023-03-24T00:39:58;31.03;;;17.90;;
7833;SDS011;3962;42.696;23.354;2023-03-24T00:42:26;27.77;;;15.20;;
7833;SDS011;3962;42.696;23.354;2023-03-24T00:44:53;25.33;;;16.97;;
7833;SDS011;3962;42.696;23.354;2023-03-24T00:47:20;24.87;;;15.53;;
7833;SDS011;3962;42.696;23.354;2023-03-24T00:49:50;23.53;;;15.10;;
7833;SDS011;3962;42.696;23.354;2023-03-24T00:52:19;25.03;;;14.60;;
7833;SDS011;3962;42.696;23.354;2023-03-24T00:54:47;27.60;;;15.90;;
7833;SDS011;3962;42.696;23.354;2023-03-24T00:57:16;28.60;;;15.93;;
7833;SDS011;3962;42.696;23.354;2023-03-24T00:59:47;24.60;;;16.10;;
7833;SDS011;3962;42.696;23.354;2023-03-24T01:02:15;29.37;;;18.17;;
7833;SDS011;3962;42.696;23.354;2023-03-24T01:04:43;27.77;;;16.67;;
7833;SDS011;3962;42.696;23.354;2023-03-24T01:07:11;30.07;;;17.40;;
7833;SDS011;3962;42.696;23.354;2023-03-24T01:09:43;30.53;;;18.03;;
7833;SDS011;3962;42.696;23.354;2023-03-24T01:12:16;29.47;;;18.23;;
7833;SDS011;3962;42.696;23.354;2023-03-24T01:14:43;30.07;;;18.77;;
7833;SDS011;3962;42.696;23.354;2023-03-24T01:17:12;28.30;;;17.67;;
7833;SDS011;3962;42.696;23.354;2023-03-24T01:19:38;27.80;;;17.93;;
7833;SDS011;3962;42.696;23.354;2023-03-24T01:22:06;31.00;;;19.37;;
7833;SDS011;3962;42.696;23.354;2023-03-24T01:24:34;36.87;;;20.00;;
7833;SDS011;3962;42.696;23.354;2023-03-24T01:27:01;32.30;;;18.50;;
7833;SDS011;3962;42.696;23.354;2023-03-24T01:29:28;32.90;;;19.83;;
7833;SDS011;3962;42.696;23.354;2023-03-24T01:31:55;34.83;;;20.83;;
7833;SDS011;3962;42.696;23.354;2023-03-24T01:34:24;36.93;;;19.97;;
7833;SDS011;3962;42.696;23.354;2023-03-24T01:36:50;34.57;;;20.77;;
7833;SDS011;3962;42.696;23.354;2023-03-24T01:39:17;33.17;;;19.93;;
7833;SDS011;3962;42.696;23.354;2023-03-24T01:41:44;37.47;;;21.87;;
7833;SDS011;3962;42.696;23.354;2023-03-24T01:44:28;37.60;;;22.07;;
7833;SDS011;3962;42.696;23.354;2023-03-24T01:46:57;37.13;;;20.20;;
7833;SDS011;3962;42.696;23.354;2023-03-24T01:49:27;38.67;;;20.77;;
7833;SDS011;3962;42.696;23.354;2023-03-24T01:51:59;35.63;;;21.03;;
7833;SDS011;3962;42.696;23.354;2023-03-24T01:54:28;38.83;;;23.37;;
7833;SDS011;3962;42.696;23.354;2023-03-24T01:56:59;32.83;;;21.70;;
7833;SDS011;3962;42.696;23.354;2023-03-24T01:59:31;37.70;;;20.70;;
7833;SDS011;3962;42.696;23.354;2023-03-24T02:02:04;36.87;;;21.53;;
7833;SDS011;3962;42.696;23.354;2023-03-24T02:04:34;38.07;;;22.17;;
7833;SDS011;3962;42.696;23.354;2023-03-24T02:07:06;36.57;;;21.77;;
7833;SDS011;3962;42.696;23.354;2023-03-24T02:09:37;34.63;;;21.03;;
7833;SDS011;3962;42.696;23.354;2023-03-24T02:12:05;43.67;;;22.77;;
7833;SDS011;3962;42.696;23.354;2023-03-24T02:14:32;38.67;;;22.30;;
7833;SDS011;3962;42.696;23.354;2023-03-24T02:20:07;39.50;;;21.77;;
7833;SDS011;3962;42.696;23.354;2023-03-24T02:26:01;34.27;;;21.60;;
7833;SDS011;3962;42.696;23.354;2023-03-24T02:28:57;35.43;;;21.87;;
7833;SDS011;3962;42.696;23.354;2023-03-24T02:31:38;40.10;;;22.27;;
7833;SDS011;3962;42.696;23.354;2023-03-24T02:34:31;41.97;;;22.67;;
7833;SDS011;3962;42.696;23.354;2023-03-24T02:40:34;47.27;;;27.23;;
7833;SDS011;3962;42.696;23.354;2023-03-24T02:43:14;42.53;;;25.17;;
7833;SDS011;3962;42.696;23.354;2023-03-24T02:45:53;45.27;;;25.50;;
7833;SDS011;3962;42.696;23.354;2023-03-24T02:48:33;60.73;;;32.20;;
7833;SDS011;3962;42.696;23.354;2023-03-24T02:51:07;57.03;;;32.47;;
7833;SDS011;3962;42.696;23.354;2023-03-24T02:53:45;59.73;;;30.23;;
7833;SDS011;3962;42.696;23.354;2023-03-24T02:56:21;49.33;;;29.10;;
7833;SDS011;3962;42.696;23.354;2023-03-24T02:58:54;52.20;;;28.50;;
7833;SDS011;3962;42.696;23.354;2023-03-24T03:01:26;43.57;;;23.70;;
7833;SDS011;3962;42.696;23.354;2023-03-24T03:03:57;39.90;;;23.60;;
7833;SDS011;3962;42.696;23.354;2023-03-24T03:06:28;43.47;;;25.33;;
7833;SDS011;3962;42.696;23.354;2023-03-24T03:08:57;43.03;;;25.47;;
7833;SDS011;3962;42.696;23.354;2023-03-24T03:11:30;47.23;;;25.57;;
7833;SDS011;3962;42.696;23.354;2023-03-24T03:13:58;59.27;;;31.43;;
7833;SDS011;3962;42.696;23.354;2023-03-24T03:16:29;46.83;;;26.30;;
7833;SDS011;3962;42.696;23.354;2023-03-24T03:19:03;36.83;;;21.10;;
7833;SDS011;3962;42.696;23.354;2023-03-24T03:21:37;43.43;;;22.37;;
7833;SDS011;3962;42.696;23.354;2023-03-24T03:24:08;46.20;;;25.87;;
7833;SDS011;3962;42.696;23.354;2023-03-24T03:26:40;47.83;;;26.48;;
7833;SDS011;3962;42.696;23.354;2023-03-24T03:29:11;43.30;;;23.63;;
7833;SDS011;3962;42.696;23.354;2023-03-24T03:31:43;40.37;;;23.13;;
7833;SDS011;3962;42.696;23.354;2023-03-24T03:34:16;37.43;;;22.33;;
7833;SDS011;3962;42.696;23.354;2023-03-24T03:36:53;37.70;;;22.03;;
7833;SDS011;3962;42.696;23.354;2023-03-24T03:39:26;45.43;;;24.53;;
7833;SDS011;3962;42.696;23.354;2023-03-24T03:41:57;45.43;;;23.33;;
7833;SDS011;3962;42.696;23.354;2023-03-24T03:44:24;50.53;;;27.30;;
7833;SDS011;3962;42.696;23.354;2023-03-24T03:46:51;55.00;;;27.30;;
7833;SDS011;3962;42.696;23.354;2023-03-24T03:49:19;49.23;;;25.13;;
7833;SDS011;3962;42.696;23.354;2023-03-24T03:51:46;51.07;;;27.40;;
7833;SDS011;3962;42.696;23.354;2023-03-24T03:54:13;54.57;;;27.10;;
7833;SDS011;3962;42.696;23.354;2023-03-24T03:56:42;52.80;;;27.97;;
7833;SDS011;3962;42.696;23.354;2023-03-24T03:59:23;50.83;;;27.43;;
7833;SDS011;3962;42.696;23.354;2023-03-24T04:01:52;48.23;;;27.27;;
7833;SDS011;3962;42.696;23.354;2023-03-24T04:04:23;50.43;;;26.30;;
7833;SDS011;3962;42.696;23.354;2023-03-24T04:07:07;54.80;;;28.67;;
7833;SDS011;3962;42.696;23.354;2023-03-24T04:09:43;64.17;;;31.50;;
7833;SDS011;3962;42.696;23.354;2023-03-24T04:12:25;57.63;;;28.90;;
7833;SDS011;3962;42.696;23.354;2023-03-24T04:15:25;54.17;;;28.30;;
7833;SDS011;3962;42.696;23.354;2023-03-24T04:18:09;46.50;;;24.23;;
7833;SDS011;3962;42.696;23.354;2023-03-24T04:20:45;44.03;;;24.00;;
7833;SDS011;3962;42.696;23.354;2023-03-24T04:23:21;36.07;;;21.53;;
7833;SDS011;3962;42.696;23.354;2023-03-24T04:25:58;41.23;;;22.77;;
7833;SDS011;3962;42.696;23.354;2023-03-24T04:28:32;44.53;;;24.77;;
7833;SDS011;3962;42.696;23.354;2023-03-24T04:31:08;46.13;;;24.60;;
7833;SDS011;3962;42.696;23.354;2023-03-24T04:33:43;47.23;;;26.03;;
7833;SDS011;3962;42.696;23.354;2023-03-24T04:36:17;47.17;;;26.20;;
7833;SDS011;3962;42.696;23.354;2023-03-24T04:38:51;57.37;;;29.63;;
7833;SDS011;3962;42.696;23.354;2023-03-24T04:41:21;55.13;;;29.00;;
7833;SDS011;3962;42.696;23.354;2023-03-24T04:43:50;51.97;;;29.50;;
7833;SDS011;3962;42.696;23.354;2023-03-24T04:46:20;56.53;;;28.23;;
7833;SDS011;3962;42.696;23.354;2023-03-24T04:48:48;62.70;;;29.93;;
7833;SDS011;3962;42.696;23.354;2023-03-24T04:51:17;56.37;;;30.33;;
7833;SDS011;3962;42.696;23.354;2023-03-24T04:53:46;52.20;;;30.17;;
7833;SDS011;3962;42.696;23.354;2023-03-24T04:56:29;52.83;;;28.60;;
7833;SDS011;3962;42.696;23.354;2023-03-24T04:59:03;62.97;;;30.10;;
7833;SDS011;3962;42.696;23.354;2023-03-24T05:01:32;55.20;;;29.83;;
7833;SDS011;3962;42.696;23.354;2023-03-24T05:04:01;59.90;;;31.03;;
7833;SDS011;3962;42.696;23.354;2023-03-24T05:06:29;58.03;;;33.87;;
7833;SDS011;3962;42.696;23.354;2023-03-24T05:08:56;61.83;;;31.97;;
7833;SDS011;3962;42.696;23.354;2023-03-24T05:11:24;69.97;;;33.77;;
7833;SDS011;3962;42.696;23.354;2023-03-24T05:13:51;57.40;;;30.60;;
7833;SDS011;3962;42.696;23.354;2023-03-24T05:16:18;72.87;;;33.37;;
7833;SDS011;3962;42.696;23.354;2023-03-24T05:18:47;57.03;;;27.60;;
7833;SDS011;3962;42.696;23.354;2023-03-24T05:21:14;49.40;;;28.43;;
7833;SDS011;3962;42.696;23.354;2023-03-24T05:23:40;45.47;;;25.13;;
7833;SDS011;3962;42.696;23.354;2023-03-24T05:26:07;54.30;;;29.93;;
7833;SDS011;3962;42.696;23.354;2023-03-24T05:28:34;57.27;;;30.57;;
7833;SDS011;3962;42.696;23.354;2023-03-24T05:31:01;50.83;;;30.53;;
7833;SDS011;3962;42.696;23.354;2023-03-24T05:33:28;55.67;;;30.90;;
7833;SDS011;3962;42.696;23.354;2023-03-24T05:35:57;57.10;;;30.63;;
7833;SDS011;3962;42.696;23.354;2023-03-24T05:38:24;47.53;;;27.50;;
7833;SDS011;3962;42.696;23.354;2023-03-24T05:40:54;47.47;;;27.60;;
7833;SDS011;3962;42.696;23.354;2023-03-24T05:43:22;53.37;;;26.47;;
7833;SDS011;3962;42.696;23.354;2023-03-24T05:45:49;48.97;;;24.87;;
7833;SDS011;3962;42.696;23.354;2023-03-24T05:48:16;35.37;;;21.13;;
7833;SDS011;3962;42.696;23.354;2023-03-24T05:50:43;37.77;;;22.50;;
7833;SDS011;3962;42.696;23.354;2023-03-24T05:53:12;38.33;;;21.23;;
7833;SDS011;3962;42.696;23.354;2023-03-24T05:55:39;42.17;;;22.80;;
7833;SDS011;3962;42.696;23.354;2023-03-24T05:58:06;43.17;;;23.10;;
7833;SDS011;3962;42.696;23.354;2023-03-24T06:00:32;37.43;;;19.13;;
7833;SDS011;3962;42.696;23.354;2023-03-24T06:02:59;33.83;;;17.87;;
7833;SDS011;3962;42.696;23.354;2023-03-24T06:05:26;29.13;;;18.27;;
7833;SDS011;3962;42.696;23.354;2023-03-24T06:07:53;27.87;;;17.43;;
7833;SDS011;3962;42.696;23.354;2023-03-24T06:10:24;29.97;;;18.63;;
7833;SDS011;3962;42.696;23.354;2023-03-24T06:12:52;31.17;;;17.73;;
7833;SDS011;3962;42.696;23.354;2023-03-24T06:15:19;29.47;;;17.47;;
7833;SDS011;3962;42.696;23.354;2023-03-24T06:17:48;38.10;;;19.10;;
7833;SDS011;3962;42.696;23.354;2023-03-24T06:20:18;30.20;;;18.60;;
7833;SDS011;3962;42.696;23.354;2023-03-24T06:22:46;32.23;;;18.43;;
7833;SDS011;3962;42.696;23.354;2023-03-24T06:25:14;34.23;;;20.37;;
7833;SDS011;3962;42.696;23.354;2023-03-24T06:27:45;36.83;;;20.90;;
7833;SDS011;3962;42.696;23.354;2023-03-24T06:30:14;43.63;;;20.50;;
7833;SDS011;3962;42.696;23.354;2023-03-24T06:32:42;29.87;;;18.60;;
7833;SDS011;3962;42.696;23.354;2023-03-24T06:35:11;30.53;;;18.47;;
7833;SDS011;3962;42.696;23.354;2023-03-24T06:37:39;35.33;;;18.90;;
7833;SDS011;3962;42.696;23.354;2023-03-24T06:40:06;34.83;;;19.60;;
7833;SDS011;3962;42.696;23.354;2023-03-24T06:42:38;37.77;;;19.87;;
7833;SDS011;3962;42.696;23.354;2023-03-24T06:45:07;37.87;;;20.00;;
7833;SDS011;3962;42.696;23.354;2023-03-24T06:47:35;35.23;;;19.97;;
7833;SDS011;3962;42.696;23.354;2023-03-24T06:50:02;32.80;;;20.07;;
7833;SDS011;3962;42.696;23.354;2023-03-24T06:52:31;39.97;;;20.03;;
7833;SDS011;3962;42.696;23.354;2023-03-24T06:54:58;29.33;;;17.43;;
7833;SDS011;3962;42.696;23.354;2023-03-24T06:57:25;34.60;;;20.70;;
7833;SDS011;3962;42.696;23.354;2023-03-24T06:59:53;30.73;;;18.70;;
7833;SDS011;3962;42.696;23.354;2023-03-24T07:02:21;33.47;;;19.67;;
7833;SDS011;3962;42.696;23.354;2023-03-24T07:04:48;37.97;;;20.73;;
7833;SDS011;3962;42.696;23.354;2023-03-24T07:07:18;36.57;;;20.33;;
7833;SDS011;3962;42.696;23.354;2023-03-24T07:09:46;41.67;;;20.97;;
7833;SDS011;3962;42.696;23.354;2023-03-24T07:12:14;38.43;;;22.00;;
7833;SDS011;3962;42.696;23.354;2023-03-24T07:14:41;35.80;;;20.60;;
7833;SDS011;3962;42.696;23.354;2023-03-24T07:17:08;36.73;;;21.47;;
7833;SDS011;3962;42.696;23.354;2023-03-24T07:19:36;45.80;;;22.60;;
7833;SDS011;3962;42.696;23.354;2023-03-24T07:22:03;33.40;;;21.00;;
7833;SDS011;3962;42.696;23.354;2023-03-24T07:24:32;31.07;;;19.53;;
7833;SDS011;3962;42.696;23.354;2023-03-24T07:26:59;35.70;;;21.67;;
7833;SDS011;3962;42.696;23.354;2023-03-24T07:29:26;38.53;;;21.50;;
7833;SDS011;3962;42.696;23.354;2023-03-24T07:31:53;32.93;;;20.17;;
7833;SDS011;3962;42.696;23.354;2023-03-24T07:34:22;32.67;;;18.83;;
7833;SDS011;3962;42.696;23.354;2023-03-24T07:36:51;30.17;;;20.13;;
7833;SDS011;3962;42.696;23.354;2023-03-24T07:39:18;35.37;;;19.07;;
7833;SDS011;3962;42.696;23.354;2023-03-24T07:41:45;34.27;;;19.40;;
7833;SDS011;3962;42.696;23.354;2023-03-24T07:44:12;27.97;;;19.27;;
7833;SDS011;3962;42.696;23.354;2023-03-24T07:46:39;38.20;;;21.10;;
7833;SDS011;3962;42.696;23.354;2023-03-24T07:49:06;35.97;;;19.17;;
7833;SDS011;3962;42.696;23.354;2023-03-24T07:51:33;46.13;;;21.27;;
7833;SDS011;3962;42.696;23.354;2023-03-24T07:54:01;38.13;;;20.97;;
7833;SDS011;3962;42.696;23.354;2023-03-24T07:56:28;37.97;;;20.97;;
7833;SDS011;3962;42.696;23.354;2023-03-24T07:58:55;36.53;;;21.93;;
7833;SDS011;3962;42.696;23.354;2023-03-24T08:01:22;36.93;;;21.57;;
7833;SDS011;3962;42.696;23.354;2023-03-24T08:03:49;33.73;;;19.80;;
7833;SDS011;3962;42.696;23.354;2023-03-24T08:06:19;34.10;;;20.17;;
7833;SDS011;3962;42.696;23.354;2023-03-24T08:08:46;32.30;;;18.47;;
7833;SDS011;3962;42.696;23.354;2023-03-24T08:11:14;34.87;;;17.80;;
7833;SDS011;3962;42.696;23.354;2023-03-24T08:13:41;27.60;;;17.80;;
7833;SDS011;3962;42.696;23.354;2023-03-24T08:16:08;29.40;;;18.67;;
7833;SDS011;3962;42.696;23.354;2023-03-24T08:18:35;26.37;;;17.70;;
7833;SDS011;3962;42.696;23.354;2023-03-24T08:21:02;31.37;;;19.10;;
7833;SDS011;3962;42.696;23.354;2023-03-24T08:23:29;36.33;;;20.30;;
7833;SDS011;3962;42.696;23.354;2023-03-24T08:25:56;30.17;;;18.27;;
7833;SDS011;3962;42.696;23.354;2023-03-24T08:28:24;30.03;;;17.00;;
7833;SDS011;3962;42.696;23.354;2023-03-24T08:30:51;28.00;;;16.70;;
7833;SDS011;3962;42.696;23.354;2023-03-24T08:33:18;29.67;;;16.37;;
7833;SDS011;3962;42.696;23.354;2023-03-24T08:35:45;26.27;;;16.27;;
7833;SDS011;3962;42.696;23.354;2023-03-24T08:38:12;22.27;;;15.53;;
7833;SDS011;3962;42.696;23.354;2023-03-24T08:40:40;24.07;;;16.83;;
7833;SDS011;3962;42.696;23.354;2023-03-24T08:43:09;21.70;;;13.27;;
7833;SDS011;3962;42.696;23.354;2023-03-24T08:45:40;23.10;;;13.57;;
7833;SDS011;3962;42.696;23.354;2023-03-24T08:48:08;32.50;;;18.80;;
7833;SDS011;3962;42.696;23.354;2023-03-24T08:50:36;33.50;;;17.93;;
7833;SDS011;3962;42.696;23.354;2023-03-24T08:53:04;40.57;;;23.33;;
7833;SDS011;3962;42.696;23.354;2023-03-24T08:55:31;30.23;;;17.63;;
7833;SDS011;3962;42.696;23.354;2023-03-24T08:57:59;24.20;;;15.67;;
7833;SDS011;3962;42.696;23.354;2023-03-24T09:00:26;24.70;;;16.80;;
7833;SDS011;3962;42.696;23.354;2023-03-24T09:02:54;24.23;;;15.90;;
7833;SDS011;3962;42.696;23.354;2023-03-24T09:05:22;31.17;;;16.93;;
7833;SDS011;3962;42.696;23.354;2023-03-24T09:07:50;23.00;;;15.47;;
7833;SDS011;3962;42.696;23.354;2023-03-24T09:10:18;33.47;;;18.17;;
7833;SDS011;3962;42.696;23.354;2023-03-24T09:12:56;25.60;;;16.00;;
7833;SDS011;3962;42.696;23.354;2023-03-24T09:15:26;27.80;;;16.00;;
7833;SDS011;3962;42.696;23.354;2023-03-24T09:17:55;28.83;;;15.43;;
7833;SDS011;3962;42.696;23.354;2023-03-24T09:20:23;25.97;;;15.93;;
7833;SDS011;3962;42.696;23.354;2023-03-24T09:22:50;26.37;;;16.43;;
7833;SDS011;3962;42.696;23.354;2023-03-24T09:25:18;26.87;;;16.63;;
7833;SDS011;3962;42.696;23.354;2023-03-24T09:27:46;30.77;;;19.07;;
7833;SDS011;3962;42.696;23.354;2023-03-24T09:30:13;28.27;;;14.63;;
7833;SDS011;3962;42.696;23.354;2023-03-24T09:32:41;23.67;;;15.70;;
7833;SDS011;3962;42.696;23.354;2023-03-24T09:35:09;27.37;;;17.00;;
7833;SDS011;3962;42.696;23.354;2023-03-24T09:37:39;24.57;;;15.70;;
7833;SDS011;3962;42.696;23.354;2023-03-24T09:40:09;23.53;;;15.10;;
7833;SDS011;3962;42.696;23.354;2023-03-24T09:42:43;20.90;;;14.03;;
7833;SDS011;3962;42.696;23.354;2023-03-24T09:45:16;24.70;;;16.03;;
7833;SDS011;3962;42.696;23.354;2023-03-24T09:47:47;23.47;;;15.03;;
7833;SDS011;3962;42.696;23.354;2023-03-24T09:50:21;23.20;;;15.10;;
7833;SDS011;3962;42.696;23.354;2023-03-24T09:52:51;27.97;;;16.83;;
7833;SDS011;3962;42.696;23.354;2023-03-24T09:55:21;24.97;;;15.03;;
7833;SDS011;3962;42.696;23.354;2023-03-24T09:57:50;27.53;;;15.43;;
7833;SDS011;3962;42.696;23.354;2023-03-24T10:00:21;23.50;;;15.03;;
7833;SDS011;3962;42.696;23.354;2023-03-24T10:02:52;27.23;;;15.93;;
7833;SDS011;3962;42.696;23.354;2023-03-24T10:05:25;27.50;;;14.93;;
7833;SDS011;3962;42.696;23.354;2023-03-24T10:07:59;27.10;;;14.63;;
7833;SDS011;3962;42.696;23.354;2023-03-24T10:10:35;28.20;;;14.17;;
7833;SDS011;3962;42.696;23.354;2023-03-24T10:13:13;25.07;;;15.20;;
7833;SDS011;3962;42.696;23.354;2023-03-24T10:15:48;22.60;;;13.70;;
7833;SDS011;3962;42.696;23.354;2023-03-24T10:18:27;24.27;;;13.60;;
7833;SDS011;3962;42.696;23.354;2023-03-24T10:21:01;20.67;;;14.00;;
7833;SDS011;3962;42.696;23.354;2023-03-24T10:23:33;21.53;;;13.77;;
7833;SDS011;3962;42.696;23.354;2023-03-24T10:26:04;24.33;;;14.53;;
7833;SDS011;3962;42.696;23.354;2023-03-24T10:28:41;19.47;;;13.23;;
7833;SDS011;3962;42.696;23.354;2023-03-24T10:31:12;19.23;;;12.43;;
7833;SDS011;3962;42.696;23.354;2023-03-24T10:33:42;15.80;;;10.67;;
7833;SDS011;3962;42.696;23.354;2023-03-24T10:36:13;15.60;;;9.97;;
7833;SDS011;3962;42.696;23.354;2023-03-24T10:38:42;17.60;;;11.60;;
7833;SDS011;3962;42.696;23.354;2023-03-24T10:41:11;22.27;;;12.43;;
7833;SDS011;3962;42.696;23.354;2023-03-24T10:43:42;22.93;;;12.07;;
7833;SDS011;3962;42.696;23.354;2023-03-24T10:46:10;15.63;;;9.47;;
7833;SDS011;3962;42.696;23.354;2023-03-24T10:48:41;17.17;;;10.83;;
7833;SDS011;3962;42.696;23.354;2023-03-24T10:51:16;23.50;;;9.97;;
7833;SDS011;3962;42.696;23.354;2023-03-24T10:53:44;18.63;;;9.87;;
7833;SDS011;3962;42.696;23.354;2023-03-24T10:56:16;15.33;;;9.43;;
7833;SDS011;3962;42.696;23.354;2023-03-24T10:58:44;17.37;;;10.77;;
7833;SDS011;3962;42.696;23.354;2023-03-24T11:01:22;14.73;;;8.97;;
7833;SDS011;3962;42.696;23.354;2023-03-24T11:03:51;12.67;;;9.07;;
7833;SDS011;3962;42.696;23.354;2023-03-24T11:06:26;18.17;;;10.23;;
7833;SDS011;3962;42.696;23.354;2023-03-24T11:09:06;16.10;;;9.40;;
7833;SDS011;3962;42.696;23.354;2023-03-24T11:11:36;14.00;;;8.57;;
7833;SDS011;3962;42.696;23.354;2023-03-24T11:14:03;10.83;;;8.47;;
7833;SDS011;3962;42.696;23.354;2023-03-24T11:16:47;14.50;;;8.90;;
7833;SDS011;3962;42.696;23.354;2023-03-24T11:19:16;12.10;;;8.63;;
7833;SDS011;3962;42.696;23.354;2023-03-24T11:21:47;16.27;;;9.40;;
7833;SDS011;3962;42.696;23.354;2023-03-24T11:24:15;11.93;;;8.07;;
7833;SDS011;3962;42.696;23.354;2023-03-24T11:26:44;10.90;;;8.17;;
7833;SDS011;3962;42.696;23.354;2023-03-24T11:29:20;11.40;;;8.30;;
7833;SDS011;3962;42.696;23.354;2023-03-24T11:31:53;10.77;;;6.97;;
7833;SDS011;3962;42.696;23.354;2023-03-24T11:34:23;15.13;;;8.13;;
7833;SDS011;3962;42.696;23.354;2023-03-24T11:37:00;12.67;;;6.87;;
7833;SDS011;3962;42.696;23.354;2023-03-24T11:39:29;11.83;;;7.50;;
7833;SDS011;3962;42.696;23.354;2023-03-24T11:42:03;11.13;;;7.93;;
7833;SDS011;3962;42.696;23.354;2023-03-24T11:44:43;10.17;;;7.43;;
7833;SDS011;3962;42.696;23.354;2023-03-24T11:47:14;12.40;;;7.67;;
7833;SDS011;3962;42.696;23.354;2023-03-24T11:49:50;10.77;;;7.20;;
7833;SDS011;3962;42.696;23.354;2023-03-24T11:52:27;12.97;;;7.00;;
7833;SDS011;3962;42.696;23.354;2023-03-24T11:55:01;13.27;;;6.87;;
7833;SDS011;3962;42.696;23.354;2023-03-24T11:57:35;8.70;;;6.73;;
7833;SDS011;3962;42.696;23.354;2023-03-24T12:00:13;11.33;;;5.67;;
7833;SDS011;3962;42.696;23.354;2023-03-24T12:02:52;10.20;;;6.40;;
7833;SDS011;3962;42.696;23.354;2023-03-24T12:05:33;13.57;;;6.07;;
7833;SDS011;3962;42.696;23.354;2023-03-24T12:11:05;6.67;;;4.40;;
7833;SDS011;3962;42.696;23.354;2023-03-24T12:13:38;10.80;;;5.13;;
7833;SDS011;3962;42.696;23.354;2023-03-24T12:16:13;8.47;;;4.87;;
7833;SDS011;3962;42.696;23.354;2023-03-24T12:18:51;8.37;;;6.30;;
7833;SDS011;3962;42.696;23.354;2023-03-24T12:21:36;7.73;;;4.57;;
7833;SDS011;3962;42.696;23.354;2023-03-24T12:24:17;5.90;;;4.13;;
7833;SDS011;3962;42.696;23.354;2023-03-24T12:26:55;6.93;;;3.60;;
7833;SDS011;3962;42.696;23.354;2023-03-24T12:32:23;4.03;;;3.20;;
7833;SDS011;3962;42.696;23.354;2023-03-24T12:38:08;6.20;;;3.17;;
7833;SDS011;3962;42.696;23.354;2023-03-24T12:44:09;5.27;;;3.77;;
7833;SDS011;3962;42.696;23.354;2023-03-24T12:46:46;4.50;;;3.30;;
7833;SDS011;3962;42.696;23.354;2023-03-24T12:49:25;5.30;;;4.00;;
7833;SDS011;3962;42.696;23.354;2023-03-24T12:52:19;5.17;;;3.40;;
7833;SDS011;3962;42.696;23.354;2023-03-24T12:54:59;4.63;;;3.30;;
7833;SDS011;3962;42.696;23.354;2023-03-24T12:57:31;5.77;;;2.90;;
7833;SDS011;3962;42.696;23.354;2023-03-24T13:00:05;4.93;;;3.37;;
7833;SDS011;3962;42.696;23.354;2023-03-24T13:02:40;6.60;;;3.07;;
7833;SDS011;3962;42.696;23.354;2023-03-24T13:05:13;6.63;;;3.13;;
7833;SDS011;3962;42.696;23.354;2023-03-24T13:07:45;7.00;;;4.20;;
7833;SDS011;3962;42.696;23.354;2023-03-24T13:10:18;5.33;;;3.87;;
7833;SDS011;3962;42.696;23.354;2023-03-24T13:12:51;6.27;;;3.90;;
7833;SDS011;3962;42.696;23.354;2023-03-24T13:15:23;10.63;;;4.33;;
7833;SDS011;3962;42.696;23.354;2023-03-24T13:17:57;4.20;;;3.30;;
7833;SDS011;3962;42.696;23.354;2023-03-24T13:20:31;6.83;;;3.23;;
7833;SDS011;3962;42.696;23.354;2023-03-24T13:23:03;3.97;;;2.80;;
7833;SDS011;3962;42.696;23.354;2023-03-24T13:25:42;6.17;;;3.57;;
7833;SDS011;3962;42.696;23.354;2023-03-24T13:28:16;5.73;;;3.20;;
7833;SDS011;3962;42.696;23.354;2023-03-24T13:30:50;5.13;;;3.00;;
7833;SDS011;3962;42.696;23.354;2023-03-24T13:33:18;4.23;;;3.27;;
7833;SDS011;3962;42.696;23.354;2023-03-24T13:35:55;6.30;;;3.50;;
7833;SDS011;3962;42.696;23.354;2023-03-24T13:38:33;4.87;;;3.40;;
7833;SDS011;3962;42.696;23.354;2023-03-24T13:41:04;6.03;;;2.87;;
7833;SDS011;3962;42.696;23.354;2023-03-24T13:43:33;5.83;;;3.57;;
7833;SDS011;3962;42.696;23.354;2023-03-24T13:46:01;6.87;;;3.70;;
7833;SDS011;3962;42.696;23.354;2023-03-24T13:48:32;8.40;;;4.27;;
7833;SDS011;3962;42.696;23.354;2023-03-24T13:51:03;7.73;;;3.40;;
7833;SDS011;3962;42.696;23.354;2023-03-24T13:53:34;5.47;;;3.07;;
7833;SDS011;3962;42.696;23.354;2023-03-24T13:56:04;4.73;;;2.93;;
7833;SDS011;3962;42.696;23.354;2023-03-24T13:58:45;6.13;;;3.70;;
7833;SDS011;3962;42.696;23.354;2023-03-24T14:01:18;10.17;;;3.87;;
7833;SDS011;3962;42.696;23.354;2023-03-24T14:06:54;7.07;;;3.03;;
7833;SDS011;3962;42.696;23.354;2023-03-24T14:09:23;5.20;;;3.50;;
7833;SDS011;3962;42.696;23.354;2023-03-24T14:17:40;6.60;;;3.73;;
7833;SDS011;3962;42.696;23.354;2023-03-24T14:20:11;4.80;;;3.10;;
7833;SDS011;3962;42.696;23.354;2023-03-24T14:22:49;3.97;;;2.73;;
7833;SDS011;3962;42.696;23.354;2023-03-24T14:25:20;3.87;;;3.27;;
7833;SDS011;3962;42.696;23.354;2023-03-24T14:27:50;11.03;;;4.60;;
7833;SDS011;3962;42.696;23.354;2023-03-24T14:30:19;7.43;;;3.40;;
7833;SDS011;3962;42.696;23.354;2023-03-24T14:32:51;4.13;;;3.30;;
7833;SDS011;3962;42.696;23.354;2023-03-24T14:35:24;5.50;;;2.83;;
7833;SDS011;3962;42.696;23.354;2023-03-24T14:37:57;8.53;;;3.80;;
7833;SDS011;3962;42.696;23.354;2023-03-24T14:40:27;6.83;;;3.20;;
7833;SDS011;3962;42.696;23.354;2023-03-24T14:43:12;12.43;;;4.17;;
7833;SDS011;3962;42.696;23.354;2023-03-24T14:48:34;15.30;;;7.17;;
7833;SDS011;3962;42.696;23.354;2023-03-24T14:51:11;8.20;;;4.00;;
7833;SDS011;3962;42.696;23.354;2023-03-24T14:53:49;11.97;;;5.77;;
7833;SDS011;3962;42.696;23.354;2023-03-24T14:56:19;5.50;;;3.27;;
7833;SDS011;3962;42.696;23.354;2023-03-24T14:58:48;9.50;;;4.50;;
7833;SDS011;3962;42.696;23.354;2023-03-24T15:01:20;7.27;;;4.10;;
7833;SDS011;3962;42.696;23.354;2023-03-24T15:03:56;4.47;;;3.47;;
7833;SDS011;3962;42.696;23.354;2023-03-24T15:06:29;6.73;;;4.03;;
7833;SDS011;3962;42.696;23.354;2023-03-24T15:08:56;11.73;;;3.93;;
7833;SDS011;3962;42.696;23.354;2023-03-24T15:11:26;11.70;;;3.50;;
7833;SDS011;3962;42.696;23.354;2023-03-24T15:13:55;8.70;;;3.60;;
7833;SDS011;3962;42.696;23.354;2023-03-24T15:16:24;6.63;;;4.00;;
7833;SDS011;3962;42.696;23.354;2023-03-24T15:18:53;10.03;;;6.23;;
7833;SDS011;3962;42.696;23.354;2023-03-24T15:21:26;8.73;;;5.20;;
7833;SDS011;3962;42.696;23.354;2023-03-24T15:23:55;5.63;;;4.03;;
7833;SDS011;3962;42.696;23.354;2023-03-24T15:26:23;4.53;;;3.50;;
7833;SDS011;3962;42.696;23.354;2023-03-24T15:28:55;10.90;;;4.80;;
7833;SDS011;3962;42.696;23.354;2023-03-24T15:31:23;15.37;;;5.50;;
7833;SDS011;3962;42.696;23.354;2023-03-24T15:34:02;5.57;;;3.93;;
7833;SDS011;3962;42.696;23.354;2023-03-24T15:36:32;4.73;;;3.50;;